createdAt,value
2018-08-12T00:00:12.552Z,1009.58
2018-08-12T00:01:12.584Z,1009.62
2018-08-12T00:02:12.606Z,1009.60
2018-08-12T00:03:12.638Z,1009.61
2018-08-12T00:04:12.658Z,1009.59
2018-08-12T00:05:12.672Z,1009.54
2018-08-12T00:06:12.699Z,1009.56
2018-08-12T00:07:12.724Z,1009.53
2018-08-12T00:08:12.746Z,1009.57
2018-08-12T00:09:12.807Z,1009.52
2018-08-12T00:10:12.783Z,1009.54
2018-08-12T00:11:12.815Z,1009.54
2018-08-12T00:12:12.843Z,1009.51
2018-08-12T00:13:12.905Z,1009.52
2018-08-12T00:14:12.904Z,1009.48
2018-08-12T00:15:12.949Z,1009.48
2018-08-12T00:16:12.931Z,1009.43
2018-08-12T00:17:12.954Z,1009.48
2018-08-12T00:18:12.972Z,1009.42
2018-08-12T00:19:13.021Z,1009.41
2018-08-12T00:20:13.021Z,1009.40
2018-08-12T00:21:13.046Z,1009.38
2018-08-12T00:22:13.144Z,1009.36
2018-08-12T00:23:13.102Z,1009.35
2018-08-12T00:24:13.118Z,1009.39
2018-08-12T00:25:13.141Z,1009.34
2018-08-12T00:26:13.160Z,1009.33
2018-08-12T00:27:13.191Z,1009.31
2018-08-12T00:28:13.221Z,1009.30
2018-08-12T00:29:13.231Z,1009.29
2018-08-12T00:31:13.281Z,1009.26
2018-08-12T00:32:13.307Z,1009.31
2018-08-12T00:33:13.325Z,1009.26
2018-08-12T00:34:13.349Z,1009.26
2018-08-12T00:35:13.369Z,1009.25
2018-08-12T00:36:13.389Z,1009.26
2018-08-12T00:37:13.426Z,1009.25
2018-08-12T00:38:13.447Z,1009.28
2018-08-12T00:39:13.471Z,1009.27
2018-08-12T00:40:13.495Z,1009.25
2018-08-12T00:41:13.567Z,1009.27
2018-08-12T00:42:13.537Z,1009.26
2018-08-12T00:43:13.722Z,1009.26
2018-08-12T00:44:13.591Z,1009.25
2018-08-12T00:45:13.602Z,1009.23
2018-08-12T00:46:13.685Z,1009.22
2018-08-12T00:47:13.656Z,1009.19
2018-08-12T00:48:13.687Z,1009.21
2018-08-12T00:49:13.698Z,1009.20
2018-08-12T00:50:13.724Z,1009.23
2018-08-12T00:51:13.759Z,1009.20
2018-08-12T00:52:13.759Z,1009.20
2018-08-12T00:53:13.790Z,1009.21
2018-08-12T00:54:13.819Z,1009.21
2018-08-12T00:55:13.863Z,1009.20
2018-08-12T00:56:13.857Z,1009.17
2018-08-12T00:57:13.958Z,1009.18
2018-08-12T00:58:13.954Z,1009.20
2018-08-12T00:59:13.942Z,1009.19
2018-08-12T01:00:13.949Z,1009.16
2018-08-12T01:01:13.971Z,1009.13
2018-08-12T01:02:14.007Z,1009.13
2018-08-12T01:03:14.022Z,1009.15
2018-08-12T01:04:14.058Z,1009.15
2018-08-12T01:05:14.063Z,1009.15
2018-08-12T01:06:14.104Z,1009.15
2018-08-12T01:07:14.117Z,1009.15
2018-08-12T01:08:14.137Z,1009.15
2018-08-12T01:09:14.156Z,1009.17
2018-08-12T01:10:14.216Z,1009.14
2018-08-12T01:11:14.207Z,1009.14
2018-08-12T01:12:14.280Z,1009.13
2018-08-12T01:13:14.262Z,1009.12
2018-08-12T01:14:14.268Z,1009.13
2018-08-12T01:15:14.313Z,1009.13
2018-08-12T01:16:14.316Z,1009.09
2018-08-12T01:17:14.351Z,1009.09
2018-08-12T01:19:14.415Z,1009.07
2018-08-12T01:21:14.436Z,1009.08
2018-08-12T01:22:14.484Z,1009.09
2018-08-12T01:23:17.478Z,1009.10
2018-08-12T01:24:14.535Z,1009.05
2018-08-12T01:25:14.571Z,1009.09
2018-08-12T01:26:14.539Z,1009.05
2018-08-12T01:28:14.584Z,1009.07
2018-08-12T01:29:14.608Z,1009.01
2018-08-12T01:30:14.637Z,1009.03
2018-08-12T01:31:14.666Z,1008.99
2018-08-12T01:32:14.678Z,1008.99
2018-08-12T01:33:14.712Z,1009.05
2018-08-12T01:34:14.720Z,1009.02
2018-08-12T01:35:14.752Z,1008.96
2018-08-12T01:36:14.794Z,1008.96
2018-08-12T01:37:14.799Z,1008.93
2018-08-12T01:38:14.822Z,1008.96
2018-08-12T01:39:14.843Z,1008.99
2018-08-12T01:40:14.858Z,1008.98
2018-08-12T01:41:14.896Z,1008.97
2018-08-12T01:42:14.919Z,1008.99
2018-08-12T01:43:15.052Z,1008.91
2018-08-12T01:44:14.952Z,1008.89
2018-08-12T01:45:14.978Z,1008.95
2018-08-12T01:46:14.994Z,1008.88
2018-08-12T01:47:15.021Z,1008.86
2018-08-12T01:48:15.048Z,1008.88
2018-08-12T01:49:15.061Z,1008.89
2018-08-12T01:50:15.091Z,1008.84
2018-08-12T01:51:15.115Z,1008.81
2018-08-12T01:52:15.182Z,1008.82
2018-08-12T01:53:15.164Z,1008.82
2018-08-12T01:54:15.299Z,1008.74
2018-08-12T01:55:15.210Z,1008.75
2018-08-12T01:56:15.385Z,1008.78
2018-08-12T01:57:15.259Z,1008.72
2018-08-12T01:58:15.278Z,1008.73
2018-08-12T01:59:15.291Z,1008.76
2018-08-12T02:00:15.318Z,1008.69
2018-08-12T02:01:15.339Z,1008.70
2018-08-12T02:02:15.358Z,1008.71
2018-08-12T02:03:15.389Z,1008.69
2018-08-12T02:04:15.403Z,1008.72
2018-08-12T02:05:15.429Z,1008.70
2018-08-12T02:08:15.492Z,1008.65
2018-08-12T02:09:15.515Z,1008.63
2018-08-12T02:10:15.545Z,1008.62
2018-08-12T02:11:15.573Z,1008.59
2018-08-12T02:12:15.593Z,1008.62
2018-08-12T02:13:15.610Z,1008.61
2018-08-12T02:14:15.634Z,1008.64
2018-08-12T02:15:15.652Z,1008.59
2018-08-12T02:16:15.806Z,1008.60
2018-08-12T02:17:15.707Z,1008.57
2018-08-12T02:18:15.779Z,1008.54
2018-08-12T02:19:15.745Z,1008.51
2018-08-12T02:20:15.773Z,1008.51
2018-08-12T02:21:15.798Z,1008.49
2018-08-12T02:22:15.827Z,1008.48
2018-08-12T02:23:15.843Z,1008.48
2018-08-12T02:24:15.859Z,1008.48
2018-08-12T02:25:15.879Z,1008.42
2018-08-12T02:26:15.893Z,1008.41
2018-08-12T02:27:15.959Z,1008.41
2018-08-12T02:29:15.965Z,1008.38
2018-08-12T02:30:16.001Z,1008.33
2018-08-12T02:31:16.032Z,1008.37
2018-08-12T02:32:16.029Z,1008.33
2018-08-12T02:33:16.061Z,1008.33
2018-08-12T02:34:16.078Z,1008.31
2018-08-12T02:35:16.125Z,1008.28
2018-08-12T02:36:16.138Z,1008.25
2018-08-12T02:37:16.185Z,1008.26
2018-08-12T02:38:16.188Z,1008.23
2018-08-12T02:39:16.193Z,1008.21
2018-08-12T02:41:16.251Z,1008.16
2018-08-12T02:42:16.265Z,1008.14
2018-08-12T02:43:16.289Z,1008.13
2018-08-12T02:44:16.304Z,1008.12
2018-08-12T02:45:16.348Z,1008.12
2018-08-12T02:46:16.349Z,1008.11
2018-08-12T02:47:16.381Z,1008.09
2018-08-12T02:48:16.399Z,1008.11
2018-08-12T02:49:16.411Z,1008.14
2018-08-12T02:50:16.436Z,1008.11
2018-08-12T02:51:16.463Z,1008.09
2018-08-12T02:52:16.490Z,1008.10
2018-08-12T02:53:16.810Z,1008.10
2018-08-12T02:54:16.526Z,1008.08
2018-08-12T02:55:16.556Z,1008.07
2018-08-12T02:56:16.579Z,1008.04
2018-08-12T02:57:16.602Z,1008.05
2018-08-12T02:58:16.631Z,1008.03
2018-08-12T02:59:17.641Z,1008.07
2018-08-12T03:00:16.666Z,1008.03
2018-08-12T03:02:16.706Z,1008.02
2018-08-12T03:03:16.726Z,1008.02
2018-08-12T03:04:16.751Z,1007.98
2018-08-12T03:05:16.783Z,1008.02
2018-08-12T03:06:16.794Z,1008.00
2018-08-12T03:07:16.819Z,1007.97
2018-08-12T03:08:16.856Z,1008.00
2018-08-12T03:09:16.862Z,1007.97
2018-08-12T03:10:16.882Z,1007.95
2018-08-12T03:11:16.909Z,1007.96
2018-08-12T03:12:16.934Z,1008.00
2018-08-12T03:13:16.950Z,1007.98
2018-08-12T03:14:16.972Z,1007.97
2018-08-12T03:15:16.997Z,1008.00
2018-08-12T03:16:17.019Z,1008.01
2018-08-12T03:17:17.043Z,1007.98
2018-08-12T03:18:17.064Z,1007.99
2018-08-12T03:19:17.091Z,1008.00
2018-08-12T03:20:17.123Z,1008.00
2018-08-12T03:21:17.128Z,1007.94
2018-08-12T03:22:17.205Z,1007.96
2018-08-12T03:23:17.185Z,1007.90
2018-08-12T03:24:17.197Z,1007.90
2018-08-12T03:25:17.213Z,1007.93
2018-08-12T03:26:17.241Z,1007.89
2018-08-12T03:27:17.260Z,1007.89
2018-08-12T03:28:17.282Z,1007.89
2018-08-12T03:29:17.304Z,1007.88
2018-08-12T03:30:17.369Z,1007.86
2018-08-12T03:31:17.351Z,1007.83
2018-08-12T03:32:17.381Z,1007.84
2018-08-12T03:33:17.408Z,1007.85
2018-08-12T03:34:17.444Z,1007.87
2018-08-12T03:35:17.446Z,1007.85
2018-08-12T03:36:17.466Z,1007.86
2018-08-12T03:37:17.483Z,1007.83
2018-08-12T03:38:17.515Z,1007.84
2018-08-12T03:39:17.531Z,1007.85
2018-08-12T03:40:17.550Z,1007.85
2018-08-12T03:41:17.572Z,1007.81
2018-08-12T03:42:17.595Z,1007.83
2018-08-12T03:43:17.621Z,1007.80
2018-08-12T03:44:17.636Z,1007.80
2018-08-12T03:45:17.657Z,1007.80
2018-08-12T03:46:17.693Z,1007.79
2018-08-12T03:48:17.721Z,1007.77
2018-08-12T03:49:17.748Z,1007.77
2018-08-12T03:50:17.801Z,1007.73
2018-08-12T03:51:17.795Z,1007.77
2018-08-12T03:53:17.841Z,1007.75
2018-08-12T03:54:17.888Z,1007.76
2018-08-12T03:55:17.878Z,1007.75
2018-08-12T03:56:17.962Z,1007.72
2018-08-12T03:57:17.949Z,1007.74
2018-08-12T03:58:17.947Z,1007.70
2018-08-12T03:59:17.975Z,1007.72
2018-08-12T04:00:18.001Z,1007.73
2018-08-12T04:01:18.012Z,1007.69
2018-08-12T04:02:18.083Z,1007.70
2018-08-12T04:03:18.060Z,1007.69
2018-08-12T04:04:18.075Z,1007.67
2018-08-12T04:05:18.096Z,1007.70
2018-08-12T04:06:18.120Z,1007.68
2018-08-12T04:07:18.145Z,1007.66
2018-08-12T04:08:18.163Z,1007.65
2018-08-12T04:09:18.227Z,1007.62
2018-08-12T04:10:18.212Z,1007.58
2018-08-12T04:11:18.229Z,1007.59
2018-08-12T04:12:18.264Z,1007.59
2018-08-12T04:13:18.271Z,1007.58
2018-08-12T04:14:18.313Z,1007.57
2018-08-12T04:15:18.318Z,1007.62
2018-08-12T04:16:18.344Z,1007.65
2018-08-12T04:17:18.368Z,1007.66
2018-08-12T04:18:18.384Z,1007.63
2018-08-12T04:19:18.450Z,1007.64
2018-08-12T04:20:18.509Z,1007.61
2018-08-12T04:21:18.449Z,1007.63
2018-08-12T04:22:18.478Z,1007.61
2018-08-12T04:23:18.491Z,1007.59
2018-08-12T04:24:18.538Z,1007.63
2018-08-12T04:25:18.530Z,1007.62
2018-08-12T04:26:18.560Z,1007.63
2018-08-12T04:27:18.583Z,1007.60
2018-08-12T04:28:18.602Z,1007.61
2018-08-12T04:29:18.627Z,1007.62
2018-08-12T04:30:18.648Z,1007.59
2018-08-12T04:31:18.661Z,1007.60
2018-08-12T04:32:18.689Z,1007.56
2018-08-12T04:33:18.742Z,1007.60
2018-08-12T04:34:18.732Z,1007.56
2018-08-12T04:35:18.754Z,1007.60
2018-08-12T04:36:18.772Z,1007.54
2018-08-12T04:37:18.795Z,1007.55
2018-08-12T04:38:18.822Z,1007.58
2018-08-12T04:39:18.841Z,1007.58
2018-08-12T04:40:18.865Z,1007.55
2018-08-12T04:41:18.881Z,1007.57
2018-08-12T04:42:18.907Z,1007.57
2018-08-12T04:43:18.931Z,1007.58
2018-08-12T04:44:18.951Z,1007.60
2018-08-12T04:45:18.973Z,1007.53
2018-08-12T04:46:18.996Z,1007.55
2018-08-12T04:47:19.015Z,1007.51
2018-08-12T04:48:19.034Z,1007.55
2018-08-12T04:49:19.057Z,1007.47
2018-08-12T04:51:19.101Z,1007.51
2018-08-12T04:52:19.127Z,1007.52
2018-08-12T04:53:19.147Z,1007.48
2018-08-12T04:54:19.168Z,1007.47
2018-08-12T04:55:19.194Z,1007.47
2018-08-12T04:57:19.235Z,1007.47
2018-08-12T04:58:19.250Z,1007.46
2018-08-12T04:59:19.270Z,1007.40
2018-08-12T05:00:19.292Z,1007.44
2018-08-12T05:01:19.313Z,1007.41
2018-08-12T05:02:19.338Z,1007.40
2018-08-12T05:03:19.364Z,1007.40
2018-08-12T05:04:19.383Z,1007.38
2018-08-12T05:05:19.404Z,1007.41
2018-08-12T05:06:19.426Z,1007.42
2018-08-12T05:07:19.461Z,1007.39
2018-08-12T05:08:19.465Z,1007.42
2018-08-12T05:09:19.513Z,1007.40
2018-08-12T05:10:19.583Z,1007.42
2018-08-12T05:11:19.534Z,1007.44
2018-08-12T05:12:19.608Z,1007.41
2018-08-12T05:13:19.579Z,1007.41
2018-08-12T05:14:19.610Z,1007.43
2018-08-12T05:15:19.623Z,1007.42
2018-08-12T05:16:19.646Z,1007.40
2018-08-12T05:18:19.696Z,1007.40
2018-08-12T05:19:19.714Z,1007.40
2018-08-12T05:20:19.727Z,1007.37
2018-08-12T05:21:19.760Z,1007.40
2018-08-12T05:22:19.772Z,1007.36
2018-08-12T05:23:19.797Z,1007.31
2018-08-12T05:24:19.827Z,1007.31
2018-08-12T05:25:19.842Z,1007.30
2018-08-12T05:26:19.866Z,1007.29
2018-08-12T05:27:19.879Z,1007.28
2018-08-12T05:28:19.911Z,1007.29
2018-08-12T05:30:19.953Z,1007.30
2018-08-12T05:31:20.005Z,1007.25
2018-08-12T05:32:20.006Z,1007.25
2018-08-12T05:33:20.017Z,1007.26
2018-08-12T05:34:20.034Z,1007.22
2018-08-12T05:35:20.071Z,1007.19
2018-08-12T05:36:20.087Z,1007.23
2018-08-12T05:37:20.102Z,1007.24
2018-08-12T05:38:20.132Z,1007.23
2018-08-12T05:39:20.146Z,1007.23
2018-08-12T05:40:20.163Z,1007.25
2018-08-12T05:41:20.188Z,1007.28
2018-08-12T05:42:20.214Z,1007.22
2018-08-12T05:43:20.235Z,1007.20
2018-08-12T05:44:20.255Z,1007.19
2018-08-12T05:45:20.276Z,1007.20
2018-08-12T05:46:20.302Z,1007.20
2018-08-12T05:47:20.322Z,1007.16
2018-08-12T05:48:20.360Z,1007.13
2018-08-12T05:49:20.382Z,1007.08
2018-08-12T05:50:20.407Z,1007.07
2018-08-12T05:51:20.447Z,1007.06
2018-08-12T05:52:20.448Z,1007.06
2018-08-12T05:53:20.468Z,1007.05
2018-08-12T05:54:20.491Z,1007.05
2018-08-12T05:55:20.494Z,1007.05
2018-08-12T05:56:20.526Z,1007.02
2018-08-12T05:57:20.567Z,1007.05
2018-08-12T05:58:20.557Z,1007.05
2018-08-12T05:59:20.586Z,1006.98
2018-08-12T06:00:20.610Z,1007.03
2018-08-12T06:01:20.625Z,1006.97
2018-08-12T06:02:20.667Z,1007.01
2018-08-12T06:03:20.691Z,1006.97
2018-08-12T06:04:20.699Z,1006.99
2018-08-12T06:05:20.713Z,1006.97
2018-08-12T06:06:20.741Z,1007.01
2018-08-12T06:07:20.759Z,1006.99
2018-08-12T06:08:20.792Z,1006.96
2018-08-12T06:09:20.806Z,1006.95
2018-08-12T06:10:20.830Z,1006.98
2018-08-12T06:11:20.856Z,1006.92
2018-08-12T06:12:20.881Z,1006.96
2018-08-12T06:13:21.405Z,1006.94
2018-08-12T06:14:20.920Z,1006.96
2018-08-12T06:15:20.939Z,1006.96
2018-08-12T06:16:20.968Z,1006.94
2018-08-12T06:18:21.034Z,1006.99
2018-08-12T06:19:21.046Z,1006.95
2018-08-12T06:20:21.057Z,1006.93
2018-08-12T06:21:21.072Z,1006.92
2018-08-12T06:22:21.098Z,1006.96
2018-08-12T06:23:21.122Z,1006.94
2018-08-12T06:24:21.152Z,1006.94
2018-08-12T06:25:21.165Z,1006.96
2018-08-12T06:26:21.190Z,1006.95
2018-08-12T06:27:21.229Z,1006.94
2018-08-12T06:28:21.243Z,1006.96
2018-08-12T06:29:21.263Z,1006.95
2018-08-12T06:30:21.287Z,1006.91
2018-08-12T06:31:21.328Z,1006.92
2018-08-12T06:32:21.334Z,1006.91
2018-08-12T06:33:21.375Z,1006.89
2018-08-12T06:34:21.452Z,1006.90
2018-08-12T06:35:21.406Z,1006.88
2018-08-12T06:36:21.412Z,1006.90
2018-08-12T06:37:21.447Z,1006.86
2018-08-12T06:38:21.463Z,1006.90
2018-08-12T06:39:21.476Z,1006.85
2018-08-12T06:40:21.509Z,1006.90
2018-08-12T06:41:21.528Z,1006.88
2018-08-12T06:42:21.555Z,1006.82
2018-08-12T06:43:21.579Z,1006.80
2018-08-12T06:44:21.588Z,1006.81
2018-08-12T06:45:21.619Z,1006.82
2018-08-12T06:46:21.706Z,1006.83
2018-08-12T06:47:21.665Z,1006.83
2018-08-12T06:48:21.685Z,1006.81
2018-08-12T06:49:21.716Z,1006.85
2018-08-12T06:50:21.725Z,1006.83
2018-08-12T06:51:21.757Z,1006.81
2018-08-12T06:52:21.776Z,1006.78
2018-08-12T06:53:21.842Z,1006.77
2018-08-12T06:54:21.822Z,1006.77
2018-08-12T06:55:21.851Z,1006.74
2018-08-12T06:56:21.865Z,1006.72
2018-08-12T06:57:21.902Z,1006.72
2018-08-12T06:58:21.917Z,1006.68
2018-08-12T06:59:21.940Z,1006.65
2018-08-12T07:00:21.972Z,1006.68
2018-08-12T07:01:21.983Z,1006.66
2018-08-12T07:02:22.001Z,1006.66
2018-08-12T07:03:22.027Z,1006.63
2018-08-12T07:04:22.064Z,1006.64
2018-08-12T07:05:22.073Z,1006.65
2018-08-12T07:07:22.136Z,1006.60
2018-08-12T07:08:22.147Z,1006.56
2018-08-12T07:09:22.164Z,1006.56
2018-08-12T07:10:22.194Z,1006.59
2018-08-12T07:11:22.220Z,1006.58
2018-08-12T07:12:22.238Z,1006.56
2018-08-12T07:13:22.266Z,1006.56
2018-08-12T07:14:22.337Z,1006.57
2018-08-12T07:16:22.340Z,1006.53
2018-08-12T07:17:22.356Z,1006.55
2018-08-12T07:18:22.380Z,1006.57
2018-08-12T07:19:22.403Z,1006.56
2018-08-12T07:20:22.432Z,1006.54
2018-08-12T07:21:22.446Z,1006.54
2018-08-12T07:22:22.472Z,1006.54
2018-08-12T07:23:22.507Z,1006.50
2018-08-12T07:24:22.519Z,1006.52
2018-08-12T07:25:22.544Z,1006.51
2018-08-12T07:26:22.570Z,1006.53
2018-08-12T07:27:22.595Z,1006.56
2018-08-12T07:28:22.622Z,1006.56
2018-08-12T07:29:22.645Z,1006.56
2018-08-12T07:30:22.661Z,1006.58
2018-08-12T07:31:22.685Z,1006.56
2018-08-12T07:32:22.711Z,1006.59
2018-08-12T07:33:22.736Z,1006.54
2018-08-12T07:34:22.772Z,1006.55
2018-08-12T07:35:22.777Z,1006.56
2018-08-12T07:36:22.816Z,1006.54
2018-08-12T07:37:22.855Z,1006.52
2018-08-12T07:38:22.852Z,1006.51
2018-08-12T07:39:22.874Z,1006.51
2018-08-12T07:40:22.904Z,1006.47
2018-08-12T07:41:22.925Z,1006.45
2018-08-12T07:42:22.953Z,1006.52
2018-08-12T07:43:22.978Z,1006.45
2018-08-12T07:44:23.009Z,1006.45
2018-08-12T07:45:23.030Z,1006.44
2018-08-12T07:46:23.043Z,1006.43
2018-08-12T07:47:23.067Z,1006.40
2018-08-12T07:48:23.087Z,1006.38
2018-08-12T07:49:23.114Z,1006.42
2018-08-12T07:50:23.140Z,1006.42
2018-08-12T07:51:23.167Z,1006.43
2018-08-12T07:52:23.195Z,1006.45
2018-08-12T07:53:23.211Z,1006.44
2018-08-12T07:54:23.238Z,1006.45
2018-08-12T07:55:23.258Z,1006.45
2018-08-12T07:56:23.282Z,1006.42
2018-08-12T07:57:23.321Z,1006.39
2018-08-12T07:58:23.346Z,1006.41
2018-08-12T07:59:23.356Z,1006.45
2018-08-12T08:00:23.379Z,1006.42
2018-08-12T08:01:23.403Z,1006.41
2018-08-12T08:02:23.444Z,1006.43
2018-08-12T08:03:23.458Z,1006.47
2018-08-12T08:04:23.472Z,1006.42
2018-08-12T08:05:23.507Z,1006.38
2018-08-12T08:06:23.583Z,1006.37
2018-08-12T08:07:23.551Z,1006.35
2018-08-12T08:08:23.570Z,1006.37
2018-08-12T08:09:23.607Z,1006.35
2018-08-12T08:10:23.624Z,1006.41
2018-08-12T08:11:23.655Z,1006.38
2018-08-12T08:12:23.721Z,1006.38
2018-08-12T08:13:23.704Z,1006.35
2018-08-12T08:14:23.717Z,1006.33
2018-08-12T08:15:23.759Z,1006.33
2018-08-12T08:16:23.773Z,1006.32
2018-08-12T08:17:23.799Z,1006.30
2018-08-12T08:18:23.813Z,1006.29
2018-08-12T08:19:23.853Z,1006.27
2018-08-12T08:20:23.872Z,1006.29
2018-08-12T08:21:23.892Z,1006.23
2018-08-12T08:22:23.918Z,1006.21
2018-08-12T08:23:23.943Z,1006.28
2018-08-12T08:24:23.962Z,1006.21
2018-08-12T08:25:24.065Z,1006.24
2018-08-12T08:26:24.023Z,1006.18
2018-08-12T08:27:24.089Z,1006.17
2018-08-12T08:28:24.065Z,1006.19
2018-08-12T08:29:24.093Z,1006.18
2018-08-12T08:30:24.110Z,1006.15
2018-08-12T08:31:24.156Z,1006.13
2018-08-12T08:32:24.167Z,1006.13
2018-08-12T08:33:24.189Z,1006.12
2018-08-12T08:34:24.207Z,1006.13
2018-08-12T08:35:24.240Z,1006.10
2018-08-12T08:36:24.266Z,1006.07
2018-08-12T08:37:24.289Z,1006.06
2018-08-12T08:38:24.308Z,1006.07
2018-08-12T08:39:24.341Z,1006.04
2018-08-12T08:40:24.365Z,1006.05
2018-08-12T08:41:24.397Z,1006.04
2018-08-12T08:42:24.414Z,1005.99
2018-08-12T08:43:24.436Z,1006.04
2018-08-12T08:44:24.461Z,1006.07
2018-08-12T08:45:24.493Z,1006.03
2018-08-12T08:46:24.518Z,1005.97
2018-08-12T08:47:24.542Z,1005.98
2018-08-12T08:48:24.562Z,1005.97
2018-08-12T08:49:24.595Z,1005.95
2018-08-12T08:50:24.624Z,1005.97
2018-08-12T08:51:24.631Z,1005.93
2018-08-12T08:52:24.663Z,1005.93
2018-08-12T08:53:24.685Z,1005.94
2018-08-12T08:54:24.712Z,1005.91
2018-08-12T08:55:24.754Z,1005.92
2018-08-12T08:56:24.761Z,1005.91
2018-08-12T08:57:24.789Z,1005.90
2018-08-12T08:58:24.812Z,1005.90
2018-08-12T08:59:24.841Z,1005.83
2018-08-12T09:00:24.866Z,1005.83
2018-08-12T09:01:25.000Z,1005.82
2018-08-12T09:02:24.915Z,1005.82
2018-08-12T09:03:24.942Z,1005.85
2018-08-12T09:04:24.964Z,1005.81
2018-08-12T09:05:25.005Z,1005.80
2018-08-12T09:06:25.014Z,1005.84
2018-08-12T09:07:25.041Z,1005.81
2018-08-12T09:08:25.308Z,1005.76
2018-08-12T09:09:25.097Z,1005.74
2018-08-12T09:10:25.120Z,1005.73
2018-08-12T09:11:25.145Z,1005.71
2018-08-12T09:12:25.171Z,1005.66
2018-08-12T09:13:25.203Z,1005.73
2018-08-12T09:14:25.217Z,1005.67
2018-08-12T09:15:25.244Z,1005.62
2018-08-12T09:16:25.264Z,1005.61
2018-08-12T09:17:25.295Z,1005.68
2018-08-12T09:18:25.322Z,1005.64
2018-08-12T09:19:25.350Z,1005.63
2018-08-12T09:20:25.370Z,1005.61
2018-08-12T09:21:25.398Z,1005.60
2018-08-12T09:22:25.429Z,1005.61
2018-08-12T09:23:25.451Z,1005.61
2018-08-12T09:24:25.479Z,1005.62
2018-08-12T09:25:25.501Z,1005.57
2018-08-12T09:26:25.526Z,1005.63
2018-08-12T09:27:25.551Z,1005.60
2018-08-12T09:28:25.592Z,1005.60
2018-08-12T09:29:25.641Z,1005.55
2018-08-12T09:30:25.632Z,1005.58
2018-08-12T09:31:25.656Z,1005.58
2018-08-12T09:32:25.672Z,1005.58
2018-08-12T09:33:25.709Z,1005.58
2018-08-12T09:34:25.756Z,1005.57
2018-08-12T09:35:25.766Z,1005.56
2018-08-12T09:36:25.786Z,1005.53
2018-08-12T09:37:25.838Z,1005.52
2018-08-12T09:38:25.840Z,1005.49
2018-08-12T09:39:25.866Z,1005.50
2018-08-12T09:40:25.904Z,1005.48
2018-08-12T09:41:25.915Z,1005.47
2018-08-12T09:42:25.944Z,1005.48
2018-08-12T09:43:25.965Z,1005.49
2018-08-12T09:44:26.013Z,1005.47
2018-08-12T09:45:26.018Z,1005.45
2018-08-12T09:46:26.046Z,1005.46
2018-08-12T09:47:26.076Z,1005.45
2018-08-12T09:48:26.101Z,1005.43
2018-08-12T09:49:26.130Z,1005.46
2018-08-12T09:50:26.147Z,1005.45
2018-08-12T09:51:26.247Z,1005.44
2018-08-12T09:52:26.220Z,1005.41
2018-08-12T09:53:26.231Z,1005.38
2018-08-12T09:54:26.248Z,1005.39
2018-08-12T09:55:26.267Z,1005.38
2018-08-12T09:56:26.294Z,1005.43
2018-08-12T09:57:26.336Z,1005.38
2018-08-12T09:58:26.408Z,1005.39
2018-08-12T09:59:26.388Z,1005.38
2018-08-12T10:00:26.482Z,1005.33
2018-08-12T10:01:26.431Z,1005.32
2018-08-12T10:02:26.470Z,1005.31
2018-08-12T10:03:26.488Z,1005.36
2018-08-12T10:04:26.515Z,1005.35
2018-08-12T10:05:26.552Z,1005.34
2018-08-12T10:06:26.577Z,1005.38
2018-08-12T10:07:26.645Z,1005.34
2018-08-12T10:08:26.620Z,1005.38
2018-08-12T10:09:26.645Z,1005.34
2018-08-12T10:10:26.661Z,1005.31
2018-08-12T10:11:26.689Z,1005.27
2018-08-12T10:12:26.716Z,1005.24
2018-08-12T10:13:26.741Z,1005.27
2018-08-12T10:14:26.792Z,1005.20
2018-08-12T10:15:26.832Z,1005.22
2018-08-12T10:16:26.827Z,1005.23
2018-08-12T10:17:26.852Z,1005.22
2018-08-12T10:18:26.877Z,1005.23
2018-08-12T10:19:26.905Z,1005.20
2018-08-12T10:20:26.929Z,1005.19
2018-08-12T10:21:26.971Z,1005.16
2018-08-12T10:22:26.983Z,1005.13
2018-08-12T10:23:27.011Z,1005.10
2018-08-12T10:24:27.029Z,1005.12
2018-08-12T10:25:27.056Z,1005.10
2018-08-12T10:26:27.096Z,1005.09
2018-08-12T10:27:27.117Z,1005.06
2018-08-12T10:28:27.132Z,1005.02
2018-08-12T10:29:27.163Z,1004.99
2018-08-12T10:30:27.187Z,1004.95
2018-08-12T10:31:27.215Z,1004.95
2018-08-12T10:32:27.252Z,1004.97
2018-08-12T10:33:27.267Z,1004.94
2018-08-12T10:34:27.298Z,1004.91
2018-08-12T10:35:27.324Z,1004.90
2018-08-12T10:36:27.359Z,1004.92
2018-08-12T10:37:27.378Z,1004.84
2018-08-12T10:38:27.416Z,1004.80
2018-08-12T10:39:27.440Z,1004.88
2018-08-12T10:40:27.461Z,1004.83
2018-08-12T10:41:27.483Z,1004.82
2018-08-12T10:42:27.506Z,1004.81
2018-08-12T10:43:27.542Z,1004.79
2018-08-12T10:44:27.660Z,1004.80
2018-08-12T10:45:27.594Z,1004.74
2018-08-12T10:46:27.614Z,1004.75
2018-08-12T10:47:27.645Z,1004.77
2018-08-12T10:48:27.663Z,1004.72
2018-08-12T10:49:27.702Z,1004.70
2018-08-12T10:50:27.738Z,1004.70
2018-08-12T10:51:27.754Z,1004.70
2018-08-12T10:52:27.778Z,1004.68
2018-08-12T10:53:27.801Z,1004.67
2018-08-12T10:54:27.832Z,1004.70
2018-08-12T10:55:27.866Z,1004.66
2018-08-12T10:56:27.974Z,1004.66
2018-08-12T10:57:27.915Z,1004.66
2018-08-12T10:58:27.940Z,1004.64
2018-08-12T10:59:28.042Z,1004.62
2018-08-12T11:00:27.989Z,1004.62
2018-08-12T11:01:28.019Z,1004.59
2018-08-12T11:02:28.045Z,1004.60
2018-08-12T11:03:28.084Z,1004.57
2018-08-12T11:04:28.113Z,1004.53
2018-08-12T11:05:28.133Z,1004.54
2018-08-12T11:06:28.173Z,1004.55
2018-08-12T11:07:28.266Z,1004.49
2018-08-12T11:08:28.205Z,1004.50
2018-08-12T11:09:28.241Z,1004.51
2018-08-12T11:10:28.274Z,1004.49
2018-08-12T11:11:28.287Z,1004.49
2018-08-12T11:12:28.393Z,1004.52
2018-08-12T11:13:28.361Z,1004.48
2018-08-12T11:14:28.377Z,1004.48
2018-08-12T11:15:28.400Z,1004.48
2018-08-12T11:16:28.428Z,1004.47
2018-08-12T11:17:28.462Z,1004.48
2018-08-12T11:18:28.496Z,1004.46
2018-08-12T11:19:28.510Z,1004.46
2018-08-12T11:20:28.591Z,1004.47
2018-08-12T11:21:28.559Z,1004.51
2018-08-12T11:22:28.590Z,1004.47
2018-08-12T11:23:28.623Z,1004.45
2018-08-12T11:24:28.661Z,1004.42
2018-08-12T11:25:29.549Z,1004.43
2018-08-12T11:26:28.699Z,1004.47
2018-08-12T11:27:28.737Z,1004.44
2018-08-12T11:28:28.780Z,1004.43
2018-08-12T11:29:28.788Z,1004.36
2018-08-12T11:30:28.819Z,1004.31
2018-08-12T11:31:28.837Z,1004.35
2018-08-12T11:32:28.863Z,1004.30
2018-08-12T11:33:28.889Z,1004.28
2018-08-12T11:34:28.919Z,1004.30
2018-08-12T11:35:28.949Z,1004.29
2018-08-12T11:36:28.991Z,1004.30
2018-08-12T11:37:29.007Z,1004.31
2018-08-12T11:38:29.033Z,1004.30
2018-08-12T11:39:29.075Z,1004.25
2018-08-12T11:40:29.091Z,1004.16
2018-08-12T11:41:29.111Z,1004.15
2018-08-12T11:42:29.148Z,1004.20
2018-08-12T11:43:29.160Z,1004.18
2018-08-12T11:44:29.205Z,1004.13
2018-08-12T11:45:29.222Z,1004.15
2018-08-12T11:46:29.254Z,1004.09
2018-08-12T11:47:29.337Z,1004.09
2018-08-12T11:48:29.312Z,1004.05
2018-08-12T11:49:29.338Z,1004.03
2018-08-12T11:50:29.372Z,1003.98
2018-08-12T11:51:29.386Z,1003.97
2018-08-12T11:52:29.419Z,1003.95
2018-08-12T11:53:29.445Z,1003.95
2018-08-12T11:54:29.481Z,1003.91
2018-08-12T11:55:29.498Z,1003.88
2018-08-12T11:56:29.527Z,1003.93
2018-08-12T11:57:29.594Z,1003.87
2018-08-12T11:58:29.576Z,1003.91
2018-08-12T11:59:29.608Z,1003.85
2018-08-12T12:00:29.688Z,1003.84
2018-08-12T12:01:29.663Z,1003.86
2018-08-12T12:02:29.699Z,1003.87
2018-08-12T12:03:29.731Z,1003.85
2018-08-12T12:04:30.728Z,1003.84
2018-08-12T12:05:29.784Z,1003.88
2018-08-12T12:06:29.810Z,1003.82
2018-08-12T12:07:29.835Z,1003.81
2018-08-12T12:08:30.577Z,1003.82
2018-08-12T12:09:29.890Z,1003.78
2018-08-12T12:10:29.933Z,1003.80
2018-08-12T12:11:29.949Z,1003.74
2018-08-12T12:12:29.972Z,1003.76
2018-08-12T12:13:30.005Z,1003.79
2018-08-12T12:14:30.037Z,1003.76
2018-08-12T12:15:30.069Z,1003.72
2018-08-12T12:16:30.103Z,1003.69
2018-08-12T12:17:30.123Z,1003.66
2018-08-12T12:18:30.354Z,1003.66
2018-08-12T12:19:30.179Z,1003.59
2018-08-12T12:20:30.229Z,1003.58
2018-08-12T12:21:30.239Z,1003.58
2018-08-12T12:22:30.273Z,1003.57
2018-08-12T12:23:30.285Z,1003.57